createdAt,value
2022-08-26T00:00:27.786Z,63.23
2022-08-26T00:03:08.323Z,63.32
2022-08-26T00:05:41.418Z,64.08
2022-08-26T00:08:15.122Z,63.98
2022-08-26T00:10:47.059Z,64.13
2022-08-26T00:13:19.475Z,64.97
2022-08-26T00:15:51.598Z,64.55
2022-08-26T00:18:23.759Z,64.34
2022-08-26T00:20:57.558Z,63.71
2022-08-26T00:23:29.382Z,63.13
2022-08-26T00:26:02.712Z,62.70
2022-08-26T00:28:34.845Z,62.96
2022-08-26T00:31:07.149Z,63.58
2022-08-26T00:33:39.187Z,64.09
2022-08-26T00:36:14.435Z,64.58
2022-08-26T00:38:52.546Z,64.94
2022-08-26T00:41:24.101Z,65.41
2022-08-26T00:43:56.228Z,65.76
2022-08-26T00:46:32.705Z,66.16
2022-08-26T00:49:11.647Z,66.29
2022-08-26T00:51:48.416Z,66.39
2022-08-26T00:54:23.812Z,66.78
2022-08-26T00:57:02.972Z,67.14
2022-08-26T00:59:36.081Z,67.06
2022-08-26T01:02:20.073Z,66.96
2022-08-26T01:04:57.741Z,66.95
2022-08-26T01:07:31.486Z,67.22
2022-08-26T01:10:06.703Z,68.08
2022-08-26T01:12:43.924Z,68.10
2022-08-26T01:15:20.030Z,68.79
2022-08-26T01:17:51.839Z,68.73
2022-08-26T01:20:34.076Z,69.26
2022-08-26T01:23:07.646Z,69.17
2022-08-26T01:25:43.904Z,69.45
2022-08-26T01:28:21.731Z,69.76
2022-08-26T01:30:56.027Z,69.81
2022-08-26T01:33:34.843Z,70.14
2022-08-26T01:36:15.522Z,69.85
2022-08-26T01:38:47.834Z,69.93
2022-08-26T01:41:27.169Z,70.11
2022-08-26T01:44:01.829Z,70.44
2022-08-26T01:46:34.324Z,70.32
2022-08-26T01:49:09.692Z,69.84
2022-08-26T01:51:44.462Z,69.53
2022-08-26T01:54:20.538Z,69.99
2022-08-26T01:56:55.893Z,70.37
2022-08-26T01:59:28.328Z,70.34
2022-08-26T02:02:01.891Z,70.61
2022-08-26T02:04:38.768Z,70.43
2022-08-26T02:07:12.758Z,71.13
2022-08-26T02:09:44.826Z,71.49
2022-08-26T02:12:19.482Z,71.52
2022-08-26T02:14:56.664Z,71.65
2022-08-26T02:17:35.951Z,71.83
2022-08-26T02:20:13.318Z,71.90
2022-08-26T02:22:47.813Z,72.20
2022-08-26T02:25:25.611Z,72.13
2022-08-26T02:27:57.714Z,72.14
2022-08-26T02:30:32.308Z,72.23
2022-08-26T02:33:04.912Z,72.13
2022-08-26T02:35:38.189Z,71.98
2022-08-26T02:38:11.496Z,72.37
2022-08-26T02:40:44.122Z,72.45
2022-08-26T02:43:15.673Z,72.88
2022-08-26T02:45:47.400Z,73.08
2022-08-26T02:48:22.227Z,73.11
2022-08-26T02:50:53.816Z,73.18
2022-08-26T02:53:25.754Z,73.18
2022-08-26T02:55:58.485Z,72.90
2022-08-26T02:58:31.779Z,72.67
2022-08-26T03:01:04.877Z,72.88
2022-08-26T03:03:37.019Z,73.25
2022-08-26T03:06:09.162Z,73.19
2022-08-26T03:08:40.813Z,73.22
2022-08-26T03:11:14.049Z,73.20
2022-08-26T03:13:46.969Z,72.98
2022-08-26T03:16:19.109Z,73.47
2022-08-26T03:18:52.406Z,73.94
2022-08-26T03:21:25.050Z,74.00
2022-08-26T03:23:58.508Z,73.76
2022-08-26T03:26:30.459Z,73.65
2022-08-26T03:29:19.990Z,73.50
2022-08-26T03:31:51.673Z,73.77
2022-08-26T03:34:24.336Z,74.17
2022-08-26T03:36:57.429Z,73.83
2022-08-26T03:39:31.425Z,73.96
2022-08-26T03:42:03.377Z,74.00
2022-08-26T03:44:35.072Z,74.55
2022-08-26T03:47:08.774Z,74.68
2022-08-26T03:49:40.653Z,74.82
2022-08-26T03:52:12.242Z,74.89
2022-08-26T03:54:44.202Z,74.86
2022-08-26T03:57:18.864Z,74.88
2022-08-26T03:59:53.450Z,75.09
2022-08-26T04:02:26.001Z,75.23
2022-08-26T04:04:57.672Z,75.07
2022-08-26T04:07:29.377Z,74.97
2022-08-26T04:10:05.034Z,74.55
2022-08-26T04:12:37.268Z,74.25
2022-08-26T04:15:13.877Z,74.10
2022-08-26T04:17:45.776Z,73.61
2022-08-26T04:20:20.903Z,72.50
2022-08-26T04:22:52.410Z,71.27
2022-08-26T04:25:24.350Z,70.16
2022-08-26T04:27:56.026Z,68.79
2022-08-26T04:30:29.071Z,67.42
2022-08-26T04:33:04.606Z,65.87
2022-08-26T04:35:45.311Z,64.38
2022-08-26T04:38:20.927Z,62.90
2022-08-26T04:40:56.581Z,61.24
2022-08-26T04:43:30.579Z,59.16
2022-08-26T04:46:05.021Z,56.46
2022-08-26T04:48:36.749Z,54.91
2022-08-26T04:51:09.167Z,54.30
2022-08-26T04:53:41.378Z,53.59
2022-08-26T04:56:14.353Z,52.40
2022-08-26T04:58:45.905Z,51.37
2022-08-26T05:01:18.582Z,50.08
2022-08-26T05:03:50.343Z,49.00
2022-08-26T05:06:23.186Z,47.79
2022-08-26T05:08:55.325Z,46.95
2022-08-26T05:11:28.197Z,45.94
2022-08-26T05:14:02.716Z,44.95
2022-08-26T05:16:34.468Z,43.98
2022-08-26T05:19:06.918Z,42.95
2022-08-26T05:21:40.321Z,41.69
2022-08-26T05:24:13.334Z,40.83
2022-08-26T05:26:48.052Z,40.21
2022-08-26T05:29:19.840Z,39.60
2022-08-26T05:31:53.614Z,38.85
2022-08-26T05:34:30.378Z,37.93
2022-08-26T05:37:02.393Z,37.04
2022-08-26T05:39:35.584Z,36.32
2022-08-26T05:42:08.437Z,35.54
2022-08-26T05:44:55.685Z,34.40
2022-08-26T05:47:28.368Z,33.62
2022-08-26T05:50:00.589Z,33.06
2022-08-26T05:52:32.209Z,32.83
2022-08-26T05:55:03.977Z,32.37
2022-08-26T05:57:39.952Z,32.26
2022-08-26T06:00:17.191Z,31.56
2022-08-26T06:02:49.092Z,31.00
2022-08-26T06:05:21.699Z,30.49
2022-08-26T06:08:11.289Z,30.72
2022-08-26T06:10:48.049Z,30.18
2022-08-26T06:13:21.816Z,30.39
2022-08-26T06:15:55.389Z,28.82
2022-08-26T06:18:32.819Z,31.13
2022-08-26T06:21:16.304Z,31.09
2022-08-26T06:24:07.470Z,31.65
2022-08-26T06:26:50.346Z,31.88
2022-08-26T06:29:25.825Z,32.22
2022-08-26T06:31:58.993Z,32.21
2022-08-26T06:34:31.575Z,30.98
2022-08-26T06:37:06.470Z,31.07
2022-08-26T06:39:41.146Z,31.56
2022-08-26T06:42:13.474Z,32.10
2022-08-26T06:44:46.461Z,32.31
2022-08-26T06:47:18.152Z,33.15
2022-08-26T06:49:50.407Z,33.98
2022-08-26T06:52:24.632Z,32.63
2022-08-26T06:54:56.334Z,31.74
2022-08-26T06:57:28.505Z,32.59
2022-08-26T07:00:04.725Z,32.66
2022-08-26T07:02:36.470Z,33.15
2022-08-26T07:05:10.007Z,34.21
2022-08-26T07:07:41.593Z,34.52
2022-08-26T07:10:14.894Z,34.88
2022-08-26T07:12:49.018Z,34.18
2022-08-26T07:15:23.946Z,34.75
2022-08-26T07:18:03.111Z,34.54
2022-08-26T07:20:37.006Z,34.07
2022-08-26T07:23:10.319Z,34.57
2022-08-26T07:25:43.676Z,34.17
2022-08-26T07:28:15.201Z,33.93
2022-08-26T07:30:46.902Z,33.91
2022-08-26T07:33:18.796Z,34.59
2022-08-26T07:35:50.873Z,36.52
2022-08-26T07:38:22.454Z,38.21
2022-08-26T07:40:54.575Z,39.39
2022-08-26T07:43:27.400Z,40.13
2022-08-26T07:46:00.958Z,41.32
2022-08-26T07:48:32.910Z,41.61
2022-08-26T07:51:06.731Z,42.17
2022-08-26T07:53:39.866Z,42.34
2022-08-26T07:56:11.601Z,42.54
2022-08-26T07:58:45.740Z,43.06
2022-08-26T08:01:19.548Z,43.39
2022-08-26T08:03:51.867Z,42.89
2022-08-26T08:06:27.216Z,43.28
2022-08-26T08:09:00.582Z,43.61
2022-08-26T08:11:33.488Z,42.97
2022-08-26T08:14:08.278Z,43.50
2022-08-26T08:16:46.064Z,43.45
2022-08-26T08:19:19.187Z,43.99
2022-08-26T08:21:50.806Z,43.44
2022-08-26T08:24:22.973Z,42.79
2022-08-26T08:26:55.463Z,43.10
2022-08-26T08:29:29.578Z,43.70
2022-08-26T08:32:02.598Z,43.14
2022-08-26T08:34:34.371Z,43.53
2022-08-26T08:37:10.647Z,44.05
2022-08-26T08:39:42.884Z,43.10
2022-08-26T08:42:35.241Z,43.97
2022-08-26T08:45:11.605Z,44.49
2022-08-26T08:47:47.714Z,44.41
2022-08-26T08:50:27.233Z,43.01
2022-08-26T08:53:13.302Z,43.80
2022-08-26T08:56:12.200Z,43.55
2022-08-26T08:58:57.229Z,43.28
2022-08-26T09:01:37.991Z,43.58
2022-08-26T09:04:33.107Z,44.35
2022-08-26T09:07:08.070Z,43.95
2022-08-26T09:09:42.697Z,43.97
2022-08-26T09:12:29.466Z,44.22
2022-08-26T09:15:07.521Z,43.97
2022-08-26T09:17:49.268Z,43.01
2022-08-26T09:21:03.830Z,43.17
2022-08-26T09:23:37.978Z,42.75
2022-08-26T09:26:20.278Z,42.61
2022-08-26T09:28:58.612Z,42.74
2022-08-26T09:31:32.432Z,42.35
2022-08-26T09:34:17.330Z,42.95
2022-08-26T09:36:51.369Z,43.04
2022-08-26T09:39:33.208Z,41.87
2022-08-26T09:42:14.277Z,41.72
2022-08-26T09:45:00.284Z,40.85
2022-08-26T09:47:36.305Z,41.57
2022-08-26T09:50:28.835Z,41.05
2022-08-26T09:53:30.657Z,40.75
2022-08-26T09:56:19.274Z,40.38
2022-08-26T09:58:53.038Z,40.76
2022-08-26T10:01:32.906Z,39.98
2022-08-26T10:04:11.292Z,39.36
2022-08-26T10:06:55.460Z,39.39
2022-08-26T10:09:28.190Z,39.83
2022-08-26T10:12:07.701Z,39.66
2022-08-26T10:17:28.458Z,39.42
2022-08-26T10:20:32.391Z,39.96
2022-08-26T10:23:08.449Z,39.85
2022-08-26T10:25:47.392Z,38.02
2022-08-26T10:28:28.383Z,38.55
2022-08-26T10:31:05.888Z,38.85
2022-08-26T10:33:40.348Z,38.27
2022-08-26T10:36:32.264Z,37.62
2022-08-26T10:39:09.142Z,36.88
2022-08-26T10:41:50.103Z,36.51
2022-08-26T10:44:24.373Z,36.41
2022-08-26T10:46:59.835Z,35.83
2022-08-26T10:49:31.691Z,36.72
2022-08-26T10:52:16.664Z,36.90
2022-08-26T10:54:54.354Z,35.59
2022-08-26T10:57:34.337Z,35.38
2022-08-26T11:00:28.792Z,35.36
2022-08-26T11:03:09.533Z,35.61
2022-08-26T11:06:21.222Z,34.27
2022-08-26T11:08:56.341Z,34.30
2022-08-26T11:11:49.352Z,34.15
2022-08-26T11:14:53.087Z,34.50
2022-08-26T11:18:00.064Z,33.88
2022-08-26T11:20:39.288Z,34.64
2022-08-26T11:23:50.514Z,34.96
2022-08-26T11:26:43.219Z,34.47
2022-08-26T11:29:56.430Z,32.93
2022-08-26T11:32:45.584Z,33.43
2022-08-26T11:35:52.263Z,32.98
2022-08-26T11:38:30.311Z,32.81
2022-08-26T11:41:18.219Z,33.57
2022-08-26T11:43:53.674Z,34.36
2022-08-26T11:46:30.389Z,32.90
2022-08-26T11:49:07.300Z,32.57
2022-08-26T11:51:40.859Z,33.24
2022-08-26T11:54:15.831Z,33.11
2022-08-26T11:56:50.993Z,33.22
2022-08-26T12:02:19.108Z,32.74
2022-08-26T12:04:50.431Z,32.67
2022-08-26T12:07:27.025Z,32.18
2022-08-26T12:10:02.724Z,31.71
2022-08-26T12:12:38.716Z,31.38
2022-08-26T12:15:15.928Z,32.00
2022-08-26T12:17:54.292Z,32.14
2022-08-26T12:20:48.195Z,31.83
2022-08-26T12:23:29.308Z,32.38
2022-08-26T12:26:09.050Z,32.69
2022-08-26T12:28:50.842Z,33.21
2022-08-26T12:31:32.648Z,31.84
2022-08-26T12:34:07.375Z,31.36
2022-08-26T12:36:51.739Z,32.06
2022-08-26T12:39:31.394Z,32.49
2022-08-26T12:42:04.763Z,31.44
2022-08-26T12:44:53.843Z,31.42
2022-08-26T12:47:42.483Z,32.42
2022-08-26T12:50:20.754Z,32.64
2022-08-26T12:53:00.070Z,32.40
2022-08-26T12:55:41.268Z,32.77
2022-08-26T12:58:31.727Z,32.63
2022-08-26T13:01:23.669Z,32.53
2022-08-26T13:03:58.760Z,32.58
2022-08-26T13:06:31.674Z,32.11
2022-08-26T13:09:06.526Z,32.67
2022-08-26T13:12:06.336Z,32.67
2022-08-26T13:14:38.566Z,32.91
2022-08-26T13:17:13.342Z,32.94
2022-08-26T13:19:45.077Z,33.35
2022-08-26T13:22:20.342Z,33.25
2022-08-26T13:24:54.372Z,33.03
2022-08-26T13:27:27.606Z,33.29
2022-08-26T13:29:59.852Z,31.99
2022-08-26T13:32:32.782Z,33.48
2022-08-26T13:35:05.669Z,34.76
2022-08-26T13:37:37.711Z,34.38
2022-08-26T13:40:11.321Z,33.83
2022-08-26T13:42:49.931Z,33.93
2022-08-26T13:45:26.223Z,33.81
2022-08-26T13:47:58.612Z,34.10
2022-08-26T13:50:30.404Z,33.85
2022-08-26T13:53:02.281Z,34.00
2022-08-26T13:55:33.988Z,34.02
2022-08-26T13:58:05.731Z,34.10
2022-08-26T14:00:38.239Z,33.61
2022-08-26T14:03:13.625Z,34.65
2022-08-26T14:05:48.067Z,34.75
2022-08-26T14:08:20.482Z,34.58
2022-08-26T14:10:52.504Z,35.14
2022-08-26T14:13:24.487Z,35.25
2022-08-26T14:15:58.695Z,34.43
2022-08-26T14:18:33.360Z,35.11
2022-08-26T14:21:08.311Z,35.20
2022-08-26T14:23:40.174Z,35.12
2022-08-26T14:26:21.204Z,35.28
2022-08-26T14:29:04.155Z,34.27
2022-08-26T14:31:49.929Z,34.76
2022-08-26T14:34:21.603Z,35.23
2022-08-26T14:36:53.391Z,35.15
2022-08-26T14:39:26.226Z,35.29
2022-08-26T14:41:58.443Z,35.13
2022-08-26T14:44:37.579Z,35.46
2022-08-26T14:47:10.748Z,35.45
2022-08-26T14:49:42.386Z,35.51
2022-08-26T14:52:14.028Z,35.21
2022-08-26T14:54:45.790Z,35.76
2022-08-26T14:57:19.068Z,35.98
2022-08-26T14:59:50.675Z,36.46
2022-08-26T15:02:33.355Z,35.91
2022-08-26T15:05:13.662Z,35.86
2022-08-26T15:07:45.248Z,36.48
2022-08-26T15:10:18.113Z,36.54
2022-08-26T15:12:49.994Z,36.29
2022-08-26T15:15:21.981Z,36.31
2022-08-26T15:17:53.777Z,36.21
2022-08-26T15:20:25.741Z,35.64
2022-08-26T15:22:58.238Z,36.05
2022-08-26T15:25:35.157Z,36.84
2022-08-26T15:28:06.903Z,37.37
2022-08-26T15:30:39.071Z,37.38
2022-08-26T15:33:15.294Z,37.57
2022-08-26T15:35:50.342Z,37.06
2022-08-26T15:38:21.932Z,37.56
2022-08-26T15:40:53.636Z,37.29
2022-08-26T15:43:29.021Z,37.25
2022-08-26T15:46:01.140Z,37.40
2022-08-26T15:48:33.053Z,37.69
2022-08-26T15:51:06.730Z,37.69
2022-08-26T15:53:38.430Z,38.03
2022-08-26T15:56:10.243Z,38.55
2022-08-26T15:58:42.218Z,38.61
2022-08-26T16:01:18.132Z,38.82
2022-08-26T16:03:59.591Z,38.59
2022-08-26T16:06:33.901Z,38.82
2022-08-26T16:09:06.304Z,39.08
2022-08-26T16:11:40.983Z,39.04
2022-08-26T16:14:12.636Z,39.31
2022-08-26T16:16:44.329Z,39.35
2022-08-26T16:19:19.581Z,39.50
2022-08-26T16:21:51.850Z,39.87
2022-08-26T16:24:28.447Z,39.89
2022-08-26T16:27:01.956Z,40.44
2022-08-26T16:29:35.316Z,40.38
2022-08-26T16:32:08.948Z,40.36
2022-08-26T16:34:55.212Z,40.89
2022-08-26T16:37:28.598Z,40.97
2022-08-26T16:40:00.709Z,41.04
2022-08-26T16:42:32.530Z,41.24
2022-08-26T16:45:11.158Z,41.28
2022-08-26T16:47:47.392Z,41.51
2022-08-26T16:50:19.992Z,41.23
2022-08-26T16:55:49.655Z,41.45
2022-08-26T16:58:22.344Z,41.76
2022-08-26T17:00:53.986Z,41.81
2022-08-26T17:03:25.591Z,42.31
2022-08-26T17:05:57.354Z,42.24
2022-08-26T17:08:29.266Z,42.35
2022-08-26T17:11:02.897Z,43.47
2022-08-26T17:13:36.187Z,43.80
2022-08-26T17:16:36.697Z,44.24
2022-08-26T17:19:22.863Z,45.41
2022-08-26T17:22:34.546Z,45.02
2022-08-26T17:25:21.661Z,45.22
2022-08-26T17:27:53.852Z,46.35
2022-08-26T17:30:27.032Z,46.03
2022-08-26T17:33:01.601Z,46.50
2022-08-26T17:35:55.241Z,46.79
2022-08-26T17:38:29.763Z,46.53
2022-08-26T17:41:01.429Z,46.65
2022-08-26T17:43:32.979Z,46.80
2022-08-26T17:46:07.188Z,46.38
2022-08-26T17:48:40.964Z,47.21
2022-08-26T17:51:20.108Z,46.84
2022-08-26T17:54:18.926Z,46.71
2022-08-26T17:56:51.614Z,46.92
2022-08-26T17:59:24.154Z,47.18
2022-08-26T18:02:02.285Z,47.03
2022-08-26T18:04:34.087Z,47.13
2022-08-26T18:07:05.941Z,47.56
2022-08-26T18:09:37.602Z,47.68
2022-08-26T18:12:10.258Z,48.26
2022-08-26T18:14:41.932Z,48.26
2022-08-26T18:17:13.469Z,49.00
2022-08-26T18:19:49.326Z,49.90
2022-08-26T18:22:21.419Z,50.16
2022-08-26T18:24:58.732Z,50.76
2022-08-26T18:27:31.591Z,52.84
2022-08-26T18:30:03.406Z,54.06
2022-08-26T18:32:37.263Z,54.91
2022-08-26T18:35:12.719Z,55.23
2022-08-26T18:37:47.827Z,55.77
2022-08-26T18:40:19.645Z,57.07
2022-08-26T18:42:54.159Z,57.56
2022-08-26T18:45:29.023Z,58.80
2022-08-26T18:48:04.005Z,59.12
2022-08-26T18:50:38.273Z,59.32
2022-08-26T18:53:10.140Z,59.40
2022-08-26T18:55:41.660Z,59.77
2022-08-26T18:58:16.418Z,59.96
2022-08-26T19:00:48.667Z,59.85
2022-08-26T19:03:20.445Z,60.16
2022-08-26T19:05:52.112Z,60.37
2022-08-26T19:08:24.039Z,61.23
2022-08-26T19:10:55.980Z,61.78
2022-08-26T19:16:40.356Z,64.26
2022-08-26T19:19:14.650Z,62.82
2022-08-26T19:21:52.767Z,61.78
2022-08-26T19:24:28.242Z,59.58
2022-08-26T19:27:02.139Z,58.90
2022-08-26T19:29:37.163Z,59.79
2022-08-26T19:32:12.446Z,60.83
2022-08-26T19:34:45.566Z,61.47
2022-08-26T19:38:24.199Z,62.39
2022-08-26T19:40:59.649Z,64.12
2022-08-26T19:43:33.786Z,62.84
2022-08-26T19:46:11.877Z,62.65
2022-08-26T19:48:44.421Z,62.79
2022-08-26T19:51:17.926Z,62.73
2022-08-26T19:53:50.579Z,62.53
2022-08-26T19:56:23.041Z,62.58
2022-08-26T19:58:57.546Z,62.46
2022-08-26T20:01:29.346Z,62.21
2022-08-26T20:04:01.173Z,62.42
2022-08-26T20:06:44.512Z,62.50
2022-08-26T20:09:16.140Z,62.56
2022-08-26T20:11:47.929Z,62.71
2022-08-26T20:14:29.119Z,63.09
2022-08-26T20:17:01.226Z,63.66
2022-08-26T20:19:50.776Z,63.15
2022-08-26T20:22:23.030Z,61.77
2022-08-26T20:24:58.123Z,62.62
2022-08-26T20:27:37.697Z,61.80
2022-08-26T20:30:13.813Z,62.64
2022-08-26T20:32:45.752Z,63.23
2022-08-26T20:35:18.127Z,63.14
2022-08-26T20:37:49.769Z,63.52
2022-08-26T20:40:22.584Z,63.69
2022-08-26T20:42:54.377Z,64.42
2022-08-26T20:45:26.392Z,64.77
2022-08-26T20:47:59.899Z,64.32
2022-08-26T20:50:32.674Z,64.10
2022-08-26T20:53:05.733Z,64.21
2022-08-26T20:55:37.509Z,64.13
2022-08-26T20:58:09.298Z,64.17
2022-08-26T21:00:41.760Z,64.25
2022-08-26T21:03:14.443Z,64.33
2022-08-26T21:05:50.407Z,64.35
2022-08-26T21:08:22.296Z,64.23
2022-08-26T21:10:54.159Z,64.32
2022-08-26T21:13:25.723Z,64.71
2022-08-26T21:16:00.212Z,64.01
2022-08-26T21:18:32.111Z,63.55
2022-08-26T21:21:06.083Z,63.87
2022-08-26T21:23:38.760Z,63.85
2022-08-26T21:26:13.285Z,63.71
2022-08-26T21:28:47.325Z,63.82
2022-08-26T21:31:23.608Z,63.92
2022-08-26T21:33:55.291Z,64.12
2022-08-26T21:36:30.175Z,64.13
2022-08-26T21:39:02.887Z,64.14
2022-08-26T21:41:34.656Z,64.44
2022-08-26T21:44:06.739Z,64.32
2022-08-26T21:46:42.398Z,64.44
2022-08-26T21:49:16.728Z,64.60
2022-08-26T21:51:52.924Z,64.71
2022-08-26T21:54:24.670Z,64.99
2022-08-26T21:56:58.767Z,65.14
2022-08-26T21:59:30.537Z,65.46
2022-08-26T22:02:02.317Z,65.71
2022-08-26T22:04:35.632Z,65.88
2022-08-26T22:07:07.476Z,66.18
2022-08-26T22:09:40.098Z,66.07
2022-08-26T22:12:18.494Z,66.25
2022-08-26T22:14:50.206Z,66.82
2022-08-26T22:17:22.547Z,67.29
2022-08-26T22:19:55.178Z,67.33
2022-08-26T22:22:29.713Z,67.35
2022-08-26T22:25:01.692Z,67.16
2022-08-26T22:27:35.019Z,66.69
2022-08-26T22:30:15.016Z,66.47
2022-08-26T22:32:47.236Z,66.42
2022-08-26T22:35:29.337Z,66.17
2022-08-26T22:38:01.704Z,66.20
2022-08-26T22:40:34.888Z,66.01
2022-08-26T22:43:12.155Z,66.10
2022-08-26T22:45:46.727Z,65.98
2022-08-26T22:48:20.464Z,65.27
2022-08-26T22:50:59.557Z,65.19
2022-08-26T22:53:32.757Z,65.72
2022-08-26T22:56:09.695Z,66.10
2022-08-26T22:58:42.110Z,67.52
2022-08-26T23:01:15.537Z,68.60
2022-08-26T23:03:47.188Z,68.89
2022-08-26T23:06:19.589Z,68.94
2022-08-26T23:08:51.217Z,68.84
2022-08-26T23:11:23.246Z,68.68
2022-08-26T23:13:54.920Z,68.49
2022-08-26T23:16:26.724Z,68.20
2022-08-26T23:18:58.325Z,68.29
2022-08-26T23:21:30.019Z,68.40
2022-08-26T23:24:02.448Z,68.52
2022-08-26T23:26:34.475Z,68.36
2022-08-26T23:29:07.387Z,68.48
2022-08-26T23:31:41.445Z,68.04
2022-08-26T23:34:30.915Z,68.06
2022-08-26T23:37:02.781Z,68.67
2022-08-26T23:39:39.838Z,68.53
2022-08-26T23:42:12.475Z,68.56
2022-08-26T23:44:44.568Z,68.38
2022-08-26T23:47:16.619Z,68.64
2022-08-26T23:49:48.192Z,69.39
2022-08-26T23:52:37.272Z,69.63
2022-08-26T23:55:13.928Z,69.37
2022-08-26T23:57:47.059Z,68.21
